Time;durP1;ratioP1;P1;durP2;ratioP2;P2;SDS_P1;SDS_P2;PMS_P1;PMS_P2;Temp;Humidity;BMP_temperature;BMP_pressure;BME280_temperature;BME280_humidity;BME280_pressure;Samples;Min_cycle;Max_cycle;Signal;HPM_P1;HPM_P2
2021/11/10 00:00:29;;;;;;;24.00;17.17;;;;;;;-0.98;100.00;96841.09;1031956;28;20265;-50
2021/11/10 00:00:59;;;;;;;29.35;17.80;;;;;;;-0.98;100.00;96838.53;1028342;28;20401;-51
2021/11/10 00:01:30;;;;;;;23.70;16.60;;;;;;;-0.99;100.00;96837.69;1028909;28;20297;-51
2021/11/10 00:02:01;;;;;;;25.95;18.08;;;;;;;-1.00;100.00;96838.53;1028128;28;20019;-50
2021/11/10 00:02:31;;;;;;;26.92;17.38;;;;;;;-1.00;100.00;96835.97;1029050;28;20022;-50
2021/11/10 00:03:02;;;;;;;24.60;17.85;;;;;;;-1.00;100.00;96841.13;1031836;28;20559;-49
2021/11/10 00:03:33;;;;;;;28.35;19.15;;;;;;;-1.01;100.00;96842.00;1028074;28;20096;-51
2021/11/10 00:04:03;;;;;;;25.30;19.38;;;;;;;-1.00;100.00;96835.97;1027995;28;20022;-51
2021/11/10 00:04:34;;;;;;;27.17;17.52;;;;;;;-0.91;100.00;96840.19;1028292;28;20388;-50
2021/11/10 00:05:05;;;;;;;27.35;18.02;;;;;;;-0.88;100.00;96839.28;1032115;28;20065;-52
2021/11/10 00:05:37;;;;;;;26.27;17.45;;;;;;;-0.88;100.00;96837.59;1024118;28;20031;-50
2021/11/10 00:06:07;;;;;;;24.98;16.38;;;;;;;-0.87;100.00;96839.28;1028087;28;20274;-50
2021/11/10 00:06:38;;;;;;;23.92;16.67;;;;;;;-0.87;100.00;96839.28;1028081;28;20652;-50
2021/11/10 00:07:08;;;;;;;22.30;16.83;;;;;;;-0.88;100.00;96847.88;1023784;29;20011;-50
2021/11/10 00:07:40;;;;;;;22.90;15.93;;;;;;;-0.90;100.00;96843.59;1024095;28;20018;-51
2021/11/10 00:08:11;;;;;;;24.75;15.95;;;;;;;-0.89;100.00;96846.16;1023904;28;20581;-50
2021/11/10 00:08:41;;;;;;;30.35;16.38;;;;;;;-0.89;100.00;96845.31;1024873;28;20289;-50
2021/11/10 00:09:12;;;;;;;25.73;16.10;;;;;;;-0.87;100.00;96849.56;1032221;28;20018;-51
2021/11/10 00:09:42;;;;;;;20.73;16.08;;;;;;;-0.85;100.00;96846.97;1028293;28;20027;-50
2021/11/10 00:10:13;;;;;;;23.98;16.83;;;;;;;-0.87;100.00;96847.00;1032146;28;20559;-51
2021/11/10 00:10:44;;;;;;;26.58;16.75;;;;;;;-0.95;100.00;96830.78;1036223;28;20375;-50
2021/11/10 00:11:14;;;;;;;29.88;17.20;;;;;;;-0.95;100.00;96845.38;1032172;28;20257;-50
2021/11/10 00:11:45;;;;;;;25.88;17.40;;;;;;;-0.99;100.00;96842.84;1032079;28;20014;-51
2021/11/10 00:12:15;;;;;;;26.42;16.67;;;;;;;-0.98;100.00;96846.25;1023710;28;20019;-48
2021/11/10 00:12:46;;;;;;;25.40;16.83;;;;;;;-0.95;100.00;96842.81;1019901;29;20358;-50
2021/11/10 00:13:20;;;;;;;25.42;17.08;;;;;;;-0.94;100.00;96844.50;1019837;29;20482;-51
2021/11/10 00:13:51;;;;;;;26.17;17.58;;;;;;;-1.00;100.00;96843.69;1027995;28;20018;-50
2021/11/10 00:14:21;;;;;;;26.20;16.05;;;;;;;-0.94;100.00;96836.78;1031875;28;20607;-50
2021/11/10 00:14:52;;;;;;;26.92;17.25;;;;;;;-0.91;100.00;96839.34;1036012;28;20104;-50
2021/11/10 00:15:22;;;;;;;29.17;17.52;;;;;;;-0.89;100.00;96840.16;1040206;28;20106;-50
2021/11/10 00:15:53;;;;;;;28.95;17.35;;;;;;;-0.95;100.00;96842.81;1040050;28;20017;-51
2021/11/10 00:16:24;;;;;;;23.10;17.05;;;;;;;-1.00;100.00;96846.25;1032022;28;20397;-50
2021/11/10 00:16:56;;;;;;;34.00;18.48;;;;;;;-1.00;100.00;96848.84;1035872;28;20014;-52
2021/11/10 00:17:27;;;;;;;26.75;18.38;;;;;;;-0.99;100.00;96842.00;1032325;28;20018;-50
2021/11/10 00:17:58;;;;;;;26.13;17.55;;;;;;;-0.95;100.00;96845.38;1027887;28;20274;-51
2021/11/10 00:18:29;;;;;;;26.75;18.00;;;;;;;-0.99;100.00;96842.84;1024260;28;20480;-51
2021/11/10 00:19:00;;;;;;;24.15;16.42;;;;;;;-1.04;100.00;96834.31;1028134;28;20393;-49
2021/11/10 00:19:30;;;;;;;25.90;17.70;;;;;;;-1.06;100.00;96835.19;1032039;28;20254;-51
2021/11/10 00:20:01;;;;;;;30.40;17.13;;;;;;;-1.06;100.00;96835.19;1036462;28;20018;-50
2021/11/10 00:20:32;;;;;;;27.33;17.55;;;;;;;-1.06;100.00;96836.03;1035822;28;20101;-51
2021/11/10 00:21:02;;;;;;;31.00;18.35;;;;;;;-1.05;100.00;96842.91;1036107;28;20117;-49
2021/11/10 00:21:33;;;;;;;23.42;15.95;;;;;;;-1.01;100.00;96831.72;1027955;28;20018;-50
2021/11/10 00:22:03;;;;;;;24.58;16.65;;;;;;;-0.99;100.00;96834.28;1024067;28;20512;-50
2021/11/10 00:22:34;;;;;;;24.33;17.13;;;;;;;-0.96;100.00;96833.38;1027882;28;20030;-50
2021/11/10 00:23:04;;;;;;;26.45;17.85;;;;;;;-0.95;100.00;96832.53;1028020;28;20500;-51
2021/11/10 00:23:35;;;;;;;24.80;16.95;;;;;;;-0.93;100.00;96828.22;1027930;28;20029;-50
2021/11/10 00:24:07;;;;;;;25.95;16.30;;;;;;;-0.91;100.00;96832.47;1032073;28;20018;-50
2021/11/10 00:24:38;;;;;;;24.17;15.88;;;;;;;-0.89;100.00;96835.03;1027787;28;20031;-51
2021/11/10 00:25:09;;;;;;;22.55;15.60;;;;;;;-0.89;100.00;96837.59;1024051;29;20255;-50
2021/11/10 00:25:40;;;;;;;22.80;15.18;;;;;;;-0.86;100.00;96840.16;1023899;29;20019;-51
2021/11/10 00:26:10;;;;;;;22.83;16.08;;;;;;;-0.86;100.00;96845.28;1023931;28;20023;-50
2021/11/10 00:26:41;;;;;;;23.92;15.75;;;;;;;-0.85;100.00;96849.56;1023867;28;20294;-50
2021/11/10 00:27:11;;;;;;;24.45;15.50;;;;;;;-0.84;100.00;96848.69;1024006;28;20481;-51
2021/11/10 00:27:42;;;;;;;23.70;16.23;;;;;;;-0.83;100.00;96845.25;1024541;28;20027;-50
2021/11/10 00:28:12;;;;;;;26.50;15.77;;;;;;;-0.85;100.00;96842.69;1028093;28;20112;-49
2021/11/10 00:28:43;;;;;;;23.90;16.85;;;;;;;-0.86;100.00;96835.00;1032049;28;20022;-50
2021/11/10 00:29:14;;;;;;;27.75;16.67;;;;;;;-0.85;100.00;96841.84;1031991;28;20379;-50
2021/11/10 00:29:44;;;;;;;23.83;16.08;;;;;;;-0.83;100.00;96832.38;1032213;28;20074;-51
2021/11/10 00:30:15;;;;;;;27.17;15.98;;;;;;;-0.86;100.00;96835.84;1027868;28;20524;-51
2021/11/10 00:30:45;;;;;;;23.52;16.73;;;;;;;-0.87;100.00;96843.56;1024063;28;20019;-50
2021/11/10 00:31:16;;;;;;;24.85;17.15;;;;;;;-0.89;100.00;96843.59;1020004;28;20019;-51
2021/11/10 00:31:47;;;;;;;31.17;17.63;;;;;;;-0.90;100.00;96841.03;1020032;29;20024;-51
2021/11/10 00:32:18;;;;;;;23.35;16.65;;;;;;;-0.89;100.00;96845.31;1024000;28;20328;-50
2021/11/10 00:32:48;;;;;;;28.25;17.73;;;;;;;-0.89;100.00;96848.72;1024079;28;20098;-50
2021/11/10 00:33:19;;;;;;;24.00;16.38;;;;;;;-0.93;100.00;96846.22;1028049;28;20787;-50
2021/11/10 00:33:49;;;;;;;21.20;14.68;;;;;;;-0.98;100.00;96846.25;1031865;28;20069;-50
2021/11/10 00:34:20;;;;;;;29.10;17.25;;;;;;;-0.98;100.00;96843.69;1032035;28;20026;-51
2021/11/10 00:34:51;;;;;;;28.08;17.58;;;;;;;-0.95;100.00;96838.50;1031998;28;20080;-50
2021/11/10 00:35:21;;;;;;;23.23;16.70;;;;;;;-0.93;100.00;96834.19;1035957;28;20150;-51
2021/11/10 00:35:53;;;;;;;26.73;17.35;;;;;;;-0.89;100.00;96835.88;1036035;28;20026;-52
2021/11/10 00:36:23;;;;;;;23.60;17.55;;;;;;;-0.89;100.00;96829.88;1036340;28;20033;-50
2021/11/10 00:36:54;;;;;;;29.98;17.88;;;;;;;-0.96;100.00;96836.78;1032030;28;20742;-50
2021/11/10 00:37:25;;;;;;;26.25;17.08;;;;;;;-0.98;100.00;96838.53;1023770;28;20114;-51
2021/11/10 00:37:55;;;;;;;26.80;18.02;;;;;;;-1.00;100.00;96838.53;1024023;29;20097;-49
2021/11/10 00:38:26;;;;;;;25.40;17.75;;;;;;;-0.98;100.00;96844.56;1032042;28;20026;-51
2021/11/10 00:38:57;;;;;;;26.92;17.45;;;;;;;-0.97;100.00;96837.69;1027973;28;20508;-51
2021/11/10 00:39:28;;;;;;;27.63;17.40;;;;;;;-0.99;100.00;96840.25;1027693;28;20030;-51
2021/11/10 00:39:58;;;;;;;25.90;16.17;;;;;;;-1.00;100.00;96840.28;1031756;28;20309;-50
2021/11/10 00:40:29;;;;;;;28.05;18.40;;;;;;;-1.06;100.00;96833.47;1028061;28;20440;-50
2021/11/10 00:40:59;;;;;;;28.02;17.58;;;;;;;-1.06;100.00;96832.63;1032432;28;20283;-51
2021/11/10 00:41:30;;;;;;;28.77;19.15;;;;;;;-0.98;100.00;96830.81;1035996;28;20091;-52
2021/11/10 00:42:01;;;;;;;30.50;20.50;;;;;;;-0.93;100.00;96830.78;1032086;28;20026;-50
2021/11/10 00:42:32;;;;;;;30.90;18.45;;;;;;;-0.90;100.00;96839.31;1027803;28;20019;-50
2021/11/10 00:43:02;;;;;;;32.10;18.42;;;;;;;-0.93;100.00;96835.94;1027803;28;20019;-50
2021/11/10 00:43:33;;;;;;;27.60;18.20;;;;;;;-0.94;100.00;96847.91;1023792;29;20033;-51
2021/11/10 00:44:03;;;;;;;27.33;19.80;;;;;;;-0.95;100.00;96853.09;1024407;28;20023;-51
2021/11/10 00:44:34;;;;;;;26.30;17.52;;;;;;;-1.00;100.00;96841.13;1027840;28;20134;-50
2021/11/10 00:45:06;;;;;;;31.50;18.98;;;;;;;-1.05;100.00;96848.06;1024227;28;20054;-49
2021/11/10 00:45:36;;;;;;;30.77;19.40;;;;;;;-1.02;100.00;96840.28;1031827;28;20579;-51
2021/11/10 00:46:07;;;;;;;26.85;18.85;;;;;;;-1.06;100.00;96843.75;1032056;28;20253;-50
2021/11/10 00:46:37;;;;;;;30.13;19.20;;;;;;;-1.09;100.00;96840.38;1032085;28;20037;-50
2021/11/10 00:47:08;;;;;;;31.52;19.38;;;;;;;-1.16;100.00;96849.88;1031851;28;20022;-49
2021/11/10 00:47:39;;;;;;;33.42;21.65;;;;;;;-1.13;100.00;96849.81;1031565;28;20045;-50
2021/11/10 00:48:10;;;;;;;36.45;22.55;;;;;;;-1.11;100.00;96852.38;1027956;28;20023;-51
2021/11/10 00:48:41;;;;;;;35.95;21.85;;;;;;;-1.12;100.00;96848.97;1027864;28;20455;-50
2021/11/10 00:49:11;;;;;;;37.00;21.17;;;;;;;-1.08;100.00;96847.22;1028318;28;20254;-50
2021/11/10 00:49:42;;;;;;;29.95;20.88;;;;;;;-1.07;100.00;96847.22;1027652;28;20109;-50
2021/11/10 00:50:13;;;;;;;34.70;22.05;;;;;;;-1.04;100.00;96836.88;1031800;28;20113;-51
2021/11/10 00:50:43;;;;;;;34.10;21.42;;;;;;;-1.04;100.00;96833.47;1027839;28;20035;-51
2021/11/10 00:51:14;;;;;;;27.08;19.73;;;;;;;-1.05;100.00;96834.31;1032181;28;20113;-51
2021/11/10 00:51:45;;;;;;;29.77;21.10;;;;;;;-1.07;100.00;96839.50;1029170;28;20019;-52
2021/11/10 00:52:15;;;;;;;31.20;20.85;;;;;;;-1.09;100.00;96843.81;1033409;28;20014;-51
2021/11/10 00:52:46;;;;;;;29.98;19.42;;;;;;;-1.05;100.00;96840.34;1033012;28;20061;-53
2021/11/10 00:53:16;;;;;;;27.15;18.73;;;;;;;-1.03;100.00;96841.16;1025332;28;20640;-50
2021/11/10 00:53:47;;;;;;;28.65;19.80;;;;;;;-1.06;100.00;96837.78;1017023;29;20024;-51
2021/11/10 00:54:18;;;;;;;28.75;20.33;;;;;;;-1.10;100.00;96836.94;1021339;29;20031;-50
2021/11/10 00:54:48;;;;;;;28.27;19.17;;;;;;;-1.06;100.00;96838.63;1025122;29;20050;-50
2021/11/10 00:55:19;;;;;;;35.50;19.42;;;;;;;-1.04;100.00;96839.44;1029312;28;20029;-52
2021/11/10 00:55:50;;;;;;;28.98;20.30;;;;;;;-1.05;100.00;96839.47;1032992;28;20022;-50
2021/11/10 00:56:21;;;;;;;29.95;19.35;;;;;;;-1.13;100.00;96839.53;1029187;28;20026;-50
2021/11/10 00:56:53;;;;;;;27.35;19.63;;;;;;;-1.22;100.00;96839.63;1029066;28;20617;-51
2021/11/10 00:57:23;;;;;;;25.77;17.85;;;;;;;-1.20;100.00;96845.63;1033396;28;20455;-51
2021/11/10 00:57:54;;;;;;;29.52;20.65;;;;;;;-1.25;100.00;96839.69;1029037;28;20262;-51
2021/11/10 00:58:24;;;;;;;32.05;19.83;;;;;;;-1.34;100.00;96842.34;1029625;28;20021;-49
2021/11/10 00:58:55;;;;;;;32.15;20.55;;;;;;;-1.30;100.00;96836.28;1037270;28;20081;-52
2021/11/10 00:59:26;;;;;;;30.50;20.10;;;;;;;-1.26;100.00;96832.81;1028965;28;20113;-49
2021/11/10 00:59:56;;;;;;;32.50;21.95;;;;;;;-1.27;100.00;96834.53;1029087;28;20034;-50
2021/11/10 01:00:27;;;;;;;33.88;21.17;;;;;;;-1.25;100.00;96842.25;1028979;28;20093;-49
2021/11/10 01:01:42;;;;;;;30.55;21.42;;;;;;;-1.28;100.00;96842.25;1036010;28;20046;-51
2021/11/10 01:02:13;;;;;;;30.23;20.27;;;;;;;-1.28;100.00;96842.25;1036938;28;20277;-53
2021/11/10 01:02:43;;;;;;;27.65;19.80;;;;;;;-1.34;100.00;96834.63;1036958;28;20080;-55
2021/11/10 01:03:14;;;;;;;39.83;22.50;;;;;;;-1.33;100.00;96838.88;1036498;28;20018;-51
2021/11/10 01:03:45;;;;;;;32.15;21.30;;;;;;;-1.31;100.00;96837.16;1037049;28;20502;-49
2021/11/10 01:04:16;;;;;;;38.75;22.52;;;;;;;-1.32;100.00;96844.00;1037010;28;20431;-50
2021/11/10 01:04:46;;;;;;;30.88;20.60;;;;;;;-1.31;100.00;96845.72;1037049;28;20501;-49
2021/11/10 01:05:17;;;;;;;30.77;20.13;;;;;;;-1.26;100.00;96836.25;1024782;29;20118;-50
2021/11/10 01:05:47;;;;;;;29.77;19.77;;;;;;;-1.27;100.00;96836.28;1020970;29;20486;-51
2021/11/10 01:06:18;;;;;;;31.35;21.10;;;;;;;-1.27;100.00;96834.53;1024971;29;20030;-50
2021/11/10 01:06:48;;;;;;;38.28;23.10;;;;;;;-1.23;100.00;96825.09;1028840;28;20023;-49
2021/11/10 01:07:19;;;;;;;39.60;22.90;;;;;;;-1.18;100.00;96825.91;1024816;29;20405;-50
2021/11/10 01:07:49;;;;;;;34.10;22.45;;;;;;;-1.16;100.00;96829.31;1017022;29;20027;-50
2021/11/10 01:08:20;;;;;;;34.25;21.23;;;;;;;-1.17;100.00;96833.56;1024845;28;20024;-50
2021/11/10 01:08:52;;;;;;;28.73;20.88;;;;;;;-1.22;100.00;96835.34;1028886;28;20026;-50
2021/11/10 01:09:24;;;;;;;34.65;22.08;;;;;;;-1.27;100.00;96833.69;1028800;28;20069;-49
2021/11/10 01:10:00;;;;;;;30.05;19.75;;;;;;;-1.27;100.00;96833.69;1024912;29;20317;-51
2021/11/10 01:10:31;;;;;;;27.33;20.05;;;;;;;-1.28;100.00;96832.81;1024991;29;20270;-51
2021/11/10 01:11:01;;;;;;;26.35;19.42;;;;;;;-1.32;100.00;96831.16;1037898;28;20424;-49
2021/11/10 01:11:32;;;;;;;25.05;19.85;;;;;;;-1.32;100.00;96832.88;1033906;28;20359;-49
2021/11/10 01:12:02;;;;;;;28.00;19.67;;;;;;;-1.30;100.00;96829.41;1027979;28;20404;-50
2021/11/10 01:12:33;;;;;;;31.63;20.35;;;;;;;-1.29;100.00;96830.28;1020751;29;20023;-49
2021/11/10 01:13:04;;;;;;;30.67;20.92;;;;;;;-1.28;100.00;96829.41;1024609;29;20027;-53
2021/11/10 01:13:35;;;;;;;28.95;21.17;;;;;;;-1.27;100.00;96819.13;1028677;28;20023;-50
2021/11/10 01:14:05;;;;;;;26.70;19.55;;;;;;;-1.29;100.00;96828.56;1024866;29;20683;-50
2021/11/10 01:14:36;;;;;;;31.58;20.75;;;;;;;-1.28;100.00;96834.56;1028862;28;20289;-49
2021/11/10 01:15:08;;;;;;;26.98;18.80;;;;;;;-1.27;100.00;96834.53;1029018;28;20029;-50
2021/11/10 01:15:40;;;;;;;26.67;18.58;;;;;;;-1.25;100.00;96832.81;1029126;28;20428;-51
2021/11/10 01:16:10;;;;;;;27.38;19.42;;;;;;;-1.21;100.00;96829.34;1033429;28;20356;-50
2021/11/10 01:16:41;;;;;;;25.58;18.35;;;;;;;-1.18;100.00;96828.47;1032773;28;20273;-51
2021/11/10 01:17:11;;;;;;;28.15;18.73;;;;;;;-1.29;100.00;96800.28;1028905;28;20023;-49
2021/11/10 01:17:42;;;;;;;26.05;19.00;;;;;;;-1.15;100.00;96828.41;1024796;29;20039;-52
2021/11/10 01:18:13;;;;;;;26.52;18.35;;;;;;;-1.15;100.00;96823.28;1024970;28;20078;-50
2021/11/10 01:18:43;;;;;;;27.73;18.20;;;;;;;-1.17;100.00;96830.16;1020858;29;20227;-50
2021/11/10 01:19:14;;;;;;;33.63;18.95;;;;;;;-1.18;100.00;96841.31;1016967;29;20106;-52
2021/11/10 01:19:44;;;;;;;28.65;18.55;;;;;;;-1.18;100.00;96833.63;1016958;29;20030;-50
2021/11/10 01:20:16;;;;;;;24.55;18.02;;;;;;;-1.17;100.00;96830.16;1017024;29;20031;-50
2021/11/10 01:20:46;;;;;;;25.63;18.02;;;;;;;-1.17;100.00;96835.31;1021184;28;20107;-50
2021/11/10 01:21:17;;;;;;;29.05;19.00;;;;;;;-1.18;100.00;96826.75;1028574;28;20289;-51
2021/11/10 01:21:47;;;;;;;25.10;17.77;;;;;;;-1.18;100.00;96825.91;1029097;28;20034;-49
2021/11/10 01:22:18;;;;;;;27.00;17.88;;;;;;;-1.20;100.00;96823.34;1032827;28;20531;-51
2021/11/10 01:22:48;;;;;;;27.17;18.05;;;;;;;-1.22;100.00;96821.63;1032871;28;20018;-50
2021/11/10 01:23:19;;;;;;;26.00;18.27;;;;;;;-1.20;100.00;96818.19;1020865;28;20090;-50
2021/11/10 01:23:49;;;;;;;26.67;17.27;;;;;;;-1.22;100.00;96821.63;1028760;28;20171;-50
2021/11/10 01:24:20;;;;;;;25.83;17.63;;;;;;;-1.18;100.00;96820.75;1024715;28;20110;-51
2021/11/10 01:24:50;;;;;;;24.35;17.25;;;;;;;-1.16;100.00;96816.44;1024786;28;20061;-50
2021/11/10 01:25:21;;;;;;;24.70;17.27;;;;;;;-1.18;100.00;96813.88;1020848;29;20027;-50
2021/11/10 01:25:52;;;;;;;29.60;17.65;;;;;;;-1.18;100.00;96813.88;1024820;29;20401;-51
2021/11/10 01:26:22;;;;;;;26.45;17.45;;;;;;;-1.18;100.00;96815.63;1021266;29;20060;-51
2021/11/10 01:26:53;;;;;;;26.70;17.90;;;;;;;-1.14;100.00;96809.56;1028769;28;20117;-50
2021/11/10 01:27:24;;;;;;;28.23;18.08;;;;;;;-1.22;100.00;96817.38;1024803;28;20351;-49
2021/11/10 01:27:54;;;;;;;28.08;18.77;;;;;;;-1.24;100.00;96815.66;1024838;28;20031;-52
2021/11/10 01:28:25;;;;;;;26.52;18.77;;;;;;;-1.29;100.00;96809.72;1024860;29;20051;-50
2021/11/10 01:28:55;;;;;;;31.98;19.73;;;;;;;-1.30;100.00;96813.16;1020974;28;20511;-50
2021/11/10 01:29:26;;;;;;;27.13;16.65;;;;;;;-1.33;100.00;96818.31;1028815;28;20018;-50
2021/11/10 01:29:56;;;;;;;24.58;17.90;;;;;;;-1.33;100.00;96815.75;1028807;28;20056;-52
2021/11/10 01:30:27;;;;;;;23.73;16.80;;;;;;;-1.29;100.00;96812.31;1020891;29;20450;-49
2021/11/10 01:30:57;;;;;;;35.25;18.05;;;;;;;-1.28;100.00;96814.81;1021007;29;20023;-51
2021/11/10 01:31:28;;;;;;;26.50;17.42;;;;;;;-1.27;100.00;96808.84;1016902;29;20113;-51
2021/11/10 01:31:58;;;;;;;27.45;18.70;;;;;;;-1.28;100.00;96813.97;1016822;29;20072;-50
2021/11/10 01:32:29;;;;;;;31.45;18.00;;;;;;;-1.29;100.00;96812.31;1016955;29;20024;-50
2021/11/10 01:33:00;;;;;;;27.38;18.83;;;;;;;-1.27;100.00;96816.53;1020912;28;20027;-49
2021/11/10 01:33:31;;;;;;;28.13;18.13;;;;;;;-1.25;100.00;96807.09;1021146;28;20282;-51
2021/11/10 01:34:03;;;;;;;24.67;17.00;;;;;;;-1.27;100.00;96808.00;1024848;29;20026;-50
2021/11/10 01:34:34;;;;;;;25.13;17.85;;;;;;;-1.26;100.00;96807.97;1024641;29;20023;-50
2021/11/10 01:35:05;;;;;;;26.42;17.88;;;;;;;-1.27;100.00;96805.41;1028725;28;20274;-51
2021/11/10 01:35:35;;;;;;;26.08;18.38;;;;;;;-1.27;100.00;96810.56;1024775;29;20114;-50
2021/11/10 01:36:06;;;;;;;26.25;18.10;;;;;;;-1.23;100.00;96810.50;1024959;28;20126;-50
2021/11/10 01:36:37;;;;;;;24.80;17.65;;;;;;;-1.18;100.00;96811.31;1024759;29;20015;-52
2021/11/10 01:37:08;;;;;;;27.40;17.05;;;;;;;-1.19;100.00;96814.75;1025068;28;20106;-50
2021/11/10 01:37:38;;;;;;;26.63;17.30;;;;;;;-1.16;100.00;96816.44;1028821;28;20266;-50
2021/11/10 01:38:09;;;;;;;21.90;16.80;;;;;;;-1.15;100.00;96825.84;1029199;28;20049;-51
2021/11/10 01:38:40;;;;;;;27.88;19.05;;;;;;;-1.18;100.00;96820.75;1032689;28;20026;-50
2021/11/10 01:39:10;;;;;;;23.52;17.27;;;;;;;-1.15;100.00;96818.13;1028803;28;20026;-50
2021/11/10 01:39:41;;;;;;;25.98;17.55;;;;;;;-1.16;100.00;96819.03;1024887;29;20098;-51
2021/11/10 01:40:12;;;;;;;24.25;18.67;;;;;;;-1.31;100.00;96822.59;1028770;28;20079;-50
2021/11/10 01:40:43;;;;;;;28.70;19.15;;;;;;;-1.32;100.00;96822.59;1028655;28;20161;-52
2021/11/10 01:41:13;;;;;;;24.60;17.85;;;;;;;-1.32;100.00;96810.59;1024931;28;20278;-51
2021/11/10 01:41:47;;;;;;;27.98;19.27;;;;;;;-1.32;100.00;96818.31;1024750;29;20137;-49
2021/11/10 01:42:18;;;;;;;26.55;18.63;;;;;;;-1.31;100.00;96809.75;1020802;29;20028;-51
2021/11/10 01:42:51;;;;;;;26.10;17.20;;;;;;;-1.33;100.00;96805.47;1020545;29;20681;-52
2021/11/10 01:43:22;;;;;;;25.50;16.95;;;;;;;-1.35;100.00;96817.47;1028852;28;20762;-49
2021/11/10 01:43:53;;;;;;;24.30;18.15;;;;;;;-1.36;100.00;96811.50;1025295;28;20314;-50
2021/11/10 01:44:25;;;;;;;28.00;18.80;;;;;;;-1.35;100.00;96812.34;1024742;29;20118;-51
2021/11/10 01:44:56;;;;;;;28.77;19.17;;;;;;;-1.35;100.00;96805.50;1020816;29;20034;-50
2021/11/10 01:45:26;;;;;;;24.85;17.52;;;;;;;-1.35;100.00;96809.75;1016885;29;20866;-51
2021/11/10 01:45:57;;;;;;;26.90;18.60;;;;;;;-1.34;100.00;96816.63;1020822;29;20106;-49
2021/11/10 01:46:27;;;;;;;29.50;19.80;;;;;;;-1.34;100.00;96817.47;1028729;28;20029;-52
2021/11/10 01:46:59;;;;;;;27.00;19.60;;;;;;;-1.35;100.00;96815.78;1028704;28;20050;-50
2021/11/10 01:47:30;;;;;;;30.10;18.65;;;;;;;-1.32;100.00;96820.03;1028695;28;20066;-51
2021/11/10 01:48:00;;;;;;;28.52;19.05;;;;;;;-1.32;100.00;96818.31;1024890;28;20341;-50
2021/11/10 01:48:31;;;;;;;30.27;18.80;;;;;;;-1.33;100.00;96823.44;1024949;28;20099;-50
2021/11/10 01:49:02;;;;;;;26.38;18.23;;;;;;;-1.37;100.00;96818.34;1025069;28;20110;-51
2021/11/10 01:49:34;;;;;;;25.40;18.63;;;;;;;-1.35;100.00;96820.03;1032926;28;20480;-50
2021/11/10 01:50:07;;;;;;;24.17;17.52;;;;;;;-1.33;100.00;96820.88;1036901;28;20287;-49
2021/11/10 01:50:38;;;;;;;28.02;18.48;;;;;;;-1.37;100.00;96823.50;1036868;28;20352;-51
2021/11/10 01:51:09;;;;;;;27.08;19.20;;;;;;;-1.36;100.00;96821.78;1036860;28;20264;-50
2021/11/10 01:51:45;;;;;;;29.05;18.55;;;;;;;-1.34;100.00;96824.34;1028658;28;20274;-53
2021/11/10 01:52:15;;;;;;;28.70;18.67;;;;;;;-1.34;100.00;96822.59;1024753;29;20469;-52
2021/11/10 01:52:46;;;;;;;26.25;18.38;;;;;;;-1.33;100.00;96823.44;1024613;28;20262;-50
2021/11/10 01:53:17;;;;;;;28.33;19.55;;;;;;;-1.35;100.00;96818.34;1028454;28;20424;-50
2021/11/10 01:53:48;;;;;;;25.17;18.52;;;;;;;-1.32;100.00;96818.31;1024809;29;20027;-50
2021/11/10 01:54:21;;;;;;;28.88;18.38;;;;;;;-1.30;100.00;96821.72;1024999;29;20027;-50
2021/11/10 01:54:52;;;;;;;29.77;18.88;;;;;;;-1.29;100.00;96810.56;1024883;28;20769;-51
2021/11/10 01:55:22;;;;;;;26.63;17.92;;;;;;;-1.31;100.00;96820.03;1022342;28;20407;-51
2021/11/10 01:55:53;;;;;;;29.80;17.58;;;;;;;-1.31;100.00;96819.19;1032849;28;20372;-50
2021/11/10 01:56:24;;;;;;;26.25;17.42;;;;;;;-1.30;100.00;96816.56;1028755;28;20046;-51
2021/11/10 01:56:54;;;;;;;27.17;18.45;;;;;;;-1.30;100.00;96808.00;1028886;28;20188;-51
2021/11/10 01:57:25;;;;;;;27.15;17.75;;;;;;;-1.29;100.00;96812.31;1032770;28;20044;-49
2021/11/10 01:57:55;;;;;;;24.75;17.67;;;;;;;-1.29;100.00;96808.00;1032881;28;20041;-53
2021/11/10 01:58:26;;;;;;;26.70;17.40;;;;;;;-1.29;100.00;96810.56;1032846;28;20109;-50
2021/11/10 01:58:57;;;;;;;23.70;16.80;;;;;;;-1.27;100.00;96805.41;1032807;28;20065;-49
2021/11/10 01:59:34;;;;;;;26.42;17.05;;;;;;;-1.26;100.00;96814.81;1032976;28;20084;-50
2021/11/10 02:00:06;;;;;;;22.92;16.23;;;;;;;-1.25;100.00;96808.81;1024780;29;20533;-50
2021/11/10 02:00:40;;;;;;;24.50;17.90;;;;;;;-1.27;100.00;96808.84;1020668;29;20267;-51
2021/11/10 02:01:11;;;;;;;25.67;17.52;;;;;;;-1.24;100.00;96802.81;1024693;29;20263;-49
2021/11/10 02:01:43;;;;;;;19.88;15.25;;;;;;;-1.24;100.00;96808.81;1026167;28;20266;-50
2021/11/10 02:02:21;;;;;;;25.38;16.35;;;;;;;-1.23;100.00;96810.50;1024725;29;20046;-50
2021/11/10 02:02:53;;;;;;;24.27;17.73;;;;;;;-1.25;100.00;96807.09;1021575;28;20271;-52
2021/11/10 02:03:23;;;;;;;24.08;16.88;;;;;;;-1.26;100.00;96807.97;1019473;29;20259;-50
2021/11/10 02:03:55;;;;;;;26.90;17.48;;;;;;;-1.27;100.00;96815.72;1024079;29;20267;-52
2021/11/10 02:04:26;;;;;;;25.00;17.73;;;;;;;-1.24;100.00;96815.66;1024123;29;20421;-49
2021/11/10 02:04:57;;;;;;;28.75;16.98;;;;;;;-1.18;100.00;96813.88;1032093;28;20321;-50
2021/11/10 02:05:28;;;;;;;27.80;16.63;;;;;;;-1.17;100.00;96820.72;1032330;28;20253;-50
2021/11/10 02:05:58;;;;;;;23.88;17.05;;;;;;;-1.20;100.00;96820.78;1028319;28;20458;-51
2021/11/10 02:06:29;;;;;;;25.80;15.75;;;;;;;-1.22;100.00;96819.94;1024303;29;20107;-50
2021/11/10 02:06:59;;;;;;;26.52;17.45;;;;;;;-1.23;100.00;96813.06;1020141;29;20118;-49
2021/11/10 02:07:30;;;;;;;27.55;17.35;;;;;;;-1.23;100.00;96817.38;1024086;29;20022;-50
2021/11/10 02:08:00;;;;;;;26.63;17.35;;;;;;;-1.19;100.00;96819.03;1023966;29;20059;-50
2021/11/10 02:08:31;;;;;;;26.00;16.30;;;;;;;-1.15;100.00;96823.28;1024220;29;20022;-51
2021/11/10 02:09:03;;;;;;;24.75;16.35;;;;;;;-1.15;100.00;96822.44;1028131;28;20011;-50
2021/11/10 02:09:34;;;;;;;25.52;16.35;;;;;;;-1.15;100.00;96818.13;1024657;28;20050;-52
2021/11/10 02:10:06;;;;;;;24.17;16.63;;;;;;;-1.15;100.00;96825.84;1023968;29;20259;-50
2021/11/10 02:10:36;;;;;;;24.70;17.58;;;;;;;-1.15;100.00;96822.44;1024862;28;20011;-50
2021/11/10 02:11:07;;;;;;;25.45;17.00;;;;;;;-1.15;100.00;96822.44;1024330;28;20342;-51
2021/11/10 02:11:39;;;;;;;23.98;16.48;;;;;;;-1.15;100.00;96822.44;1020490;29;20553;-49
2021/11/10 02:12:10;;;;;;;26.58;16.02;;;;;;;-1.25;100.00;96803.69;1020124;29;20098;-50
2021/11/10 02:12:41;;;;;;;24.98;17.17;;;;;;;-1.17;100.00;96819.88;1020118;29;20314;-51
2021/11/10 02:13:12;;;;;;;21.83;15.80;;;;;;;-1.13;100.00;96815.56;1016940;29;20019;-50
2021/11/10 02:13:44;;;;;;;27.88;17.55;;;;;;;-1.13;100.00;96818.13;1023972;29;20265;-51
2021/11/10 02:14:18;;;;;;;23.42;15.65;;;;;;;-1.13;100.00;96810.41;1023914;29;20011;-51
2021/11/10 02:14:48;;;;;;;24.08;16.17;;;;;;;-1.10;100.00;96812.97;1023967;29;20290;-51
2021/11/10 02:15:20;;;;;;;25.17;16.63;;;;;;;-1.03;100.00;96814.59;1024188;29;20265;-51
2021/11/10 02:15:50;;;;;;;22.60;16.45;;;;;;;-1.12;100.00;96809.56;1028193;28;20105;-51
2021/11/10 02:16:21;;;;;;;24.85;17.05;;;;;;;-1.13;100.00;96813.81;1024210;28;20361;-51
2021/11/10 02:16:52;;;;;;;22.13;15.57;;;;;;;-1.14;100.00;96812.13;1024325;28;20081;-50
2021/11/10 02:17:23;;;;;;;29.13;17.08;;;;;;;-1.14;100.00;96814.72;1024141;29;20507;-52
2021/11/10 02:17:55;;;;;;;21.77;16.35;;;;;;;-1.11;100.00;96806.94;1024013;29;20381;-50
2021/11/10 02:18:25;;;;;;;21.60;16.42;;;;;;;-1.13;100.00;96815.56;1016069;29;20515;-50
2021/11/10 02:18:56;;;;;;;21.95;15.85;;;;;;;-1.08;100.00;96808.66;1016238;29;20264;-50
2021/11/10 02:19:27;;;;;;;23.77;16.63;;;;;;;-1.08;100.00;96806.09;1023959;29;20469;-53
2021/11/10 02:19:57;;;;;;;24.52;16.13;;;;;;;-1.15;100.00;96807.84;1028122;28;20018;-51
2021/11/10 02:20:31;;;;;;;24.15;16.48;;;;;;;-1.13;100.00;96807.84;1024015;29;20397;-50
2021/11/10 02:21:07;;;;;;;20.08;14.68;;;;;;;-1.08;100.00;96803.50;1024562;28;20094;-49
2021/11/10 02:21:42;;;;;;;23.23;16.15;;;;;;;-1.10;100.00;96795.81;1024031;28;20676;-50